Time;durP1;ratioP1;P1;durP2;ratioP2;P2;SDS_P1;SDS_P2;PMS_P1;PMS_P2;Temp;Humidity;BMP_temperature;BMP_pressure;BME280_temperature;BME280_humidity;BME280_pressure;Samples;Min_cycle;Max_cycle;Signal;HPM_P1;HPM_P2
2024/02/07 00:00:30;;;;;;;5.00;2.10;;;;;;;7.47;64.11;95549.45;108635;1274;22537;-75
2024/02/07 00:03:19;;;;;;;3.40;1.60;;;;;;;7.45;64.15;95543.61;108650;1274;23040;-74
2024/02/07 00:05:48;;;;;;;2.20;1.40;;;;;;;7.47;64.16;95543.23;108682;1268;22545;-75
2024/02/07 00:08:16;;;;;;;3.70;1.30;;;;;;;7.46;64.04;95535.70;108634;1251;24248;-75
2024/02/07 00:10:44;;;;;;;3.20;1.50;;;;;;;7.45;64.26;95541.86;108677;1274;22626;-75
2024/02/07 00:13:12;;;;;;;5.00;1.50;;;;;;;7.43;64.33;95541.52;108700;1274;22518;-75
2024/02/07 00:15:41;;;;;;;2.30;1.10;;;;;;;7.40;64.38;95537.60;108652;1274;22547;-75
2024/02/07 00:18:09;;;;;;;1.00;0.60;;;;;;;7.40;64.45;95538.65;108658;1269;22527;-75
2024/02/07 00:20:38;;;;;;;5.70;1.30;;;;;;;7.40;64.51;95537.20;108622;1274;22728;-75
2024/02/07 00:23:07;;;;;;;3.90;1.40;;;;;;;7.38;64.40;95532.05;108649;1274;23003;-75
2024/02/07 00:25:35;;;;;;;1.80;1.30;;;;;;;7.41;64.34;95538.08;108627;1274;22553;-75
2024/02/07 00:28:04;;;;;;;3.30;1.60;;;;;;;7.44;64.24;95535.08;108604;1274;22534;-75
2024/02/07 00:30:32;;;;;;;2.40;1.20;;;;;;;7.43;64.24;95531.91;108585;1269;22956;-75
2024/02/07 00:33:01;;;;;;;3.80;1.20;;;;;;;7.48;64.03;95509.83;108616;1269;22644;-75
2024/02/07 00:35:29;;;;;;;;;;;;;;;7.52;64.03;95532.03;108631;1274;22614;-75
2024/02/07 00:37:57;;;;;;;2.60;1.00;;;;;;;7.48;63.76;95509.73;108629;1274;22524;-75
2024/02/07 00:40:25;;;;;;;4.00;1.40;;;;;;;7.51;63.91;95521.59;108658;1274;22540;-75
2024/02/07 00:42:54;;;;;;;3.60;1.10;;;;;;;7.49;63.81;95511.66;108691;1274;22533;-74
2024/02/07 00:45:23;;;;;;;5.00;1.10;;;;;;;7.46;63.98;95512.33;108681;1274;22514;-75
2024/02/07 00:47:51;;;;;;;2.40;1.40;;;;;;;7.42;64.06;95512.31;108702;1256;24282;-75
2024/02/07 00:50:19;;;;;;;3.00;1.40;;;;;;;7.38;64.12;95499.31;108676;1274;22774;-75
2024/02/07 00:52:47;;;;;;;2.80;1.20;;;;;;;7.40;64.31;95504.87;108736;1274;22521;-75
2024/02/07 00:55:16;;;;;;;7.30;1.40;;;;;;;7.44;64.16;95494.27;108670;1274;22520;-75
2024/02/07 00:57:46;;;;;;;1.30;0.90;;;;;;;7.49;64.00;95505.34;108658;1274;22528;-74
2024/02/07 01:00:18;;;;;;;2.00;1.10;;;;;;;7.52;63.95;95501.54;108690;1272;22537;-75
2024/02/07 01:02:47;;;;;;;2.70;0.90;;;;;;;7.51;63.96;95500.34;108710;1274;22586;-75
2024/02/07 01:05:16;;;;;;;2.90;1.20;;;;;;;7.50;63.96;95489.91;108681;1274;22481;-75
2024/02/07 01:07:44;;;;;;;4.20;1.20;;;;;;;7.53;63.97;95487.19;108638;1274;24232;-75
2024/02/07 01:10:12;;;;;;;2.30;1.10;;;;;;;7.57;63.99;95504.62;108632;1274;22597;-75
2024/02/07 01:12:40;;;;;;;4.10;1.00;;;;;;;7.62;63.72;95494.45;108582;1274;22521;-75
2024/02/07 01:15:10;;;;;;;2.30;1.10;;;;;;;7.61;63.77;95493.20;108620;1274;22548;-75
2024/02/07 01:17:38;;;;;;;5.30;1.20;;;;;;;7.61;63.66;95480.33;108631;1274;22524;-75
2024/02/07 01:20:10;;;;;;;2.60;0.90;;;;;;;7.62;63.62;95484.15;108688;1274;25199;-75
2024/02/07 01:22:38;;;;;;;3.70;1.00;;;;;;;7.60;63.90;95476.89;108711;1272;22532;-75
2024/02/07 01:25:07;;;;;;;2.80;1.30;;;;;;;7.55;63.98;95459.19;108610;1274;24206;-75
2024/02/07 01:27:36;;;;;;;2.20;0.70;;;;;;;7.53;64.04;95458.17;108605;1272;22524;-75
2024/02/07 01:30:07;;;;;;;1.70;0.70;;;;;;;7.51;64.26;95458.52;108583;1274;22528;-75
2024/02/07 01:32:35;;;;;;;3.10;1.30;;;;;;;7.49;64.34;95453.13;108566;1274;24998;-75
2024/02/07 01:35:09;;;;;;;1.80;1.00;;;;;;;7.53;64.23;95452.57;108667;1272;22523;-75
2024/02/07 01:37:38;;;;;;;5.80;1.40;;;;;;;7.53;64.47;95445.88;108680;1271;24216;-75
2024/02/07 01:40:11;;;;;;;5.00;1.30;;;;;;;7.57;64.43;95446.71;108661;1274;22567;-75
2024/02/07 01:42:39;;;;;;;1.70;1.10;;;;;;;7.57;64.26;95457.15;108725;1272;22563;-75
2024/02/07 01:45:22;;;;;;;3.70;1.20;;;;;;;7.57;64.37;95451.77;108608;1274;23920;-75
2024/02/07 01:47:51;;;;;;;3.70;1.30;;;;;;;7.55;64.44;95442.05;108714;1274;22530;-75
2024/02/07 01:50:20;;;;;;;;;;;;;;;7.55;64.39;95434.88;108661;1262;22502;-75
2024/02/07 01:52:49;;;;;;;3.30;1.10;;;;;;;7.52;64.52;95442.37;108688;1274;22521;-75
2024/02/07 01:55:18;;;;;;;2.40;1.20;;;;;;;7.53;64.61;95445.84;108633;1274;24488;-75
2024/02/07 01:57:46;;;;;;;3.50;1.40;;;;;;;7.51;64.67;95426.81;108699;1274;23626;-75
2024/02/07 02:00:16;;;;;;;3.00;1.30;;;;;;;7.54;64.54;95436.05;108653;1274;22524;-75
2024/02/07 02:02:47;;;;;;;5.30;1.70;;;;;;;7.51;64.60;95427.29;108657;1274;22542;-75
2024/02/07 02:05:15;;;;;;;3.00;0.90;;;;;;;7.49;64.78;95426.80;108755;1272;23904;-75
2024/02/07 02:07:45;;;;;;;2.20;1.20;;;;;;;7.43;65.06;95424.55;108741;1274;22543;-75
2024/02/07 02:10:14;;;;;;;1.60;1.10;;;;;;;7.42;65.01;95414.40;108743;1272;22527;-75
2024/02/07 02:12:46;;;;;;;3.00;0.90;;;;;;;7.43;65.16;95413.44;108688;1274;23107;-75
2024/02/07 02:15:15;;;;;;;4.50;1.30;;;;;;;7.41;65.09;95423.00;108754;1274;22512;-75
2024/02/07 02:17:43;;;;;;;2.40;0.90;;;;;;;7.43;64.91;95414.80;108778;1274;26571;-75
2024/02/07 02:20:12;;;;;;;3.60;1.30;;;;;;;7.43;65.15;95418.02;108709;1269;22727;-75
2024/02/07 02:22:54;;;;;;;2.80;1.00;;;;;;;7.44;65.29;95407.49;108653;1274;22657;-75
2024/02/07 02:26:01;;;;;;;1.20;0.80;;;;;;;7.40;65.22;95408.41;108697;1274;22544;-75
2024/02/07 02:28:45;;;;;;;1.30;0.70;;;;;;;7.43;65.25;95416.38;108604;1274;22517;-75
2024/02/07 02:31:17;;;;;;;1.60;1.10;;;;;;;7.37;65.44;95417.06;108708;1266;23467;-75
2024/02/07 02:33:53;;;;;;;1.90;1.20;;;;;;;7.33;65.68;95411.06;108690;1272;22676;-75
2024/02/07 02:36:21;;;;;;;2.80;1.20;;;;;;;7.33;65.67;95396.30;108730;1271;24270;-75
2024/02/07 02:38:52;;;;;;;3.50;1.00;;;;;;;7.36;65.65;95399.47;108764;1272;22549;-75
2024/02/07 02:41:23;;;;;;;1.80;1.00;;;;;;;7.36;65.83;95412.13;108679;1269;22605;-75
2024/02/07 02:43:52;;;;;;;2.40;1.20;;;;;;;7.35;65.85;95404.39;108758;1274;22523;-75
2024/02/07 02:46:20;;;;;;;4.00;1.00;;;;;;;7.35;65.73;95400.85;108711;1274;25310;-74
2024/02/07 02:48:48;;;;;;;1.70;0.90;;;;;;;7.32;65.84;95398.94;108730;1274;25251;-75
2024/02/07 02:51:17;;;;;;;3.10;1.10;;;;;;;7.28;65.90;95392.98;108703;1273;22522;-75
2024/02/07 02:53:45;;;;;;;3.30;0.90;;;;;;;7.29;66.14;95393.23;108769;1256;24193;-75
2024/02/07 02:56:13;;;;;;;1.10;0.70;;;;;;;7.25;66.11;95394.92;108704;1274;22525;-75
2024/02/07 02:58:41;;;;;;;1.50;1.00;;;;;;;7.22;66.29;95376.96;108673;1274;22549;-75
2024/02/07 03:01:13;;;;;;;1.70;1.00;;;;;;;7.23;66.27;95375.27;108729;1268;22538;-75
2024/02/07 03:03:53;;;;;;;;;;;;;;;7.26;66.18;95370.04;108754;1274;22531;-75
2024/02/07 03:06:29;;;;;;;2.40;1.00;;;;;;;7.28;66.12;95365.25;108683;1274;22562;-75
2024/02/07 03:09:07;;;;;;;6.00;1.70;;;;;;;7.27;66.09;95348.19;108632;1274;22517;-75
2024/02/07 03:11:35;;;;;;;4.20;1.10;;;;;;;7.28;66.06;95357.45;108699;1274;22531;-75
2024/02/07 03:14:05;;;;;;;3.90;0.90;;;;;;;7.26;66.10;95350.80;108621;1267;22527;-75
2024/02/07 03:16:33;;;;;;;5.00;1.80;;;;;;;7.21;66.32;95364.32;108678;1274;22528;-75
2024/02/07 03:19:02;;;;;;;2.00;0.80;;;;;;;7.21;66.21;95358.37;108679;1274;23300;-75
2024/02/07 03:21:30;;;;;;;2.80;1.30;;;;;;;7.19;66.36;95362.45;108674;1269;22534;-75
2024/02/07 03:23:59;;;;;;;2.70;1.00;;;;;;;7.14;66.54;95370.73;108618;1275;22523;-75
2024/02/07 03:26:27;;;;;;;2.50;1.20;;;;;;;7.11;66.67;95360.77;108740;1272;22528;-75
2024/02/07 03:28:56;;;;;;;3.70;1.10;;;;;;;7.13;66.58;95344.04;108673;1274;22530;-75
2024/02/07 03:31:26;;;;;;;2.00;1.00;;;;;;;7.15;66.63;95352.84;108659;1274;22536;-75
2024/02/07 03:33:54;;;;;;;3.30;1.10;;;;;;;7.13;66.56;95364.27;108715;1272;22612;-75
2024/02/07 03:36:23;;;;;;;3.90;1.00;;;;;;;7.09;66.64;95357.07;108698;1274;22524;-75
2024/02/07 03:38:52;;;;;;;2.70;1.10;;;;;;;7.08;66.76;95363.56;108701;1274;22570;-75
2024/02/07 03:41:21;;;;;;;3.50;1.40;;;;;;;7.10;66.74;95340.07;108690;1267;24180;-75
2024/02/07 03:43:49;;;;;;;2.30;1.40;;;;;;;7.11;66.87;95337.73;108678;1274;25376;-75
2024/02/07 03:46:17;;;;;;;3.50;1.00;;;;;;;7.11;66.68;95352.91;108678;1274;25457;-75
2024/02/07 03:48:45;;;;;;;1.90;1.00;;;;;;;7.10;66.87;95352.04;108642;1274;22544;-75
2024/02/07 03:51:15;;;;;;;4.30;1.10;;;;;;;7.12;66.68;95332.71;108650;1274;25258;-74
2024/02/07 03:53:44;;;;;;;1.80;1.00;;;;;;;7.15;66.54;95326.92;108694;1275;25578;-74
2024/02/07 03:56:13;;;;;;;2.10;1.00;;;;;;;7.13;66.68;95330.06;108714;1271;22520;-74
2024/02/07 03:58:41;;;;;;;4.00;1.30;;;;;;;7.10;66.73;95336.85;108640;1274;22532;-75
2024/02/07 04:01:12;;;;;;;2.60;1.20;;;;;;;7.08;66.65;95317.23;108613;1274;22524;-75
2024/02/07 04:03:41;;;;;;;2.90;0.90;;;;;;;7.09;66.70;95323.70;108656;1274;22520;-75
2024/02/07 04:06:12;;;;;;;1.00;0.60;;;;;;;7.06;66.79;95321.90;108608;1274;22525;-75
2024/02/07 04:08:40;;;;;;;1.70;1.40;;;;;;;7.06;66.76;95311.67;108585;1274;24046;-74
2024/02/07 04:11:12;;;;;;;2.00;1.10;;;;;;;7.12;66.48;95309.52;108622;1274;22514;-74
2024/02/07 05:17:19;;;;;;;2.80;0.90;;;;;;;6.80;66.57;95262.17;108622;1269;22583;-75
2024/02/07 05:19:47;;;;;;;2.70;1.10;;;;;;;6.76;66.55;95259.81;108719;1274;25380;-75
2024/02/07 05:22:16;;;;;;;4.30;1.20;;;;;;;6.75;66.79;95252.14;108637;1274;24357;-75
2024/02/07 05:24:46;;;;;;;3.00;0.90;;;;;;;6.74;66.93;95255.16;108671;1274;22539;-75
2024/02/07 05:27:15;;;;;;;12.60;1.20;;;;;;;6.69;67.05;95247.80;108688;1274;22539;-75
2024/02/07 05:29:43;;;;;;;;;;;;;;;6.67;67.14;95246.89;108634;1270;22501;-74
2024/02/07 05:32:12;;;;;;;1.90;1.10;;;;;;;6.65;67.24;95247.51;108612;1274;22531;-74
2024/02/07 05:34:40;;;;;;;2.50;1.20;;;;;;;6.70;67.10;95237.41;108649;1274;22652;-74
2024/02/07 05:37:08;;;;;;;2.10;1.00;;;;;;;6.73;66.98;95237.61;108657;1274;22609;-74
2024/02/07 05:39:37;;;;;;;2.30;1.10;;;;;;;6.72;67.17;95230.05;108672;1274;22571;-75
2024/02/07 05:42:06;;;;;;;1.90;1.40;;;;;;;6.66;67.20;95234.94;108606;1274;22528;-74
2024/02/07 05:44:35;;;;;;;2.00;1.30;;;;;;;6.67;67.23;95229.73;108653;1273;22534;-74
2024/02/07 05:47:03;;;;;;;2.50;1.00;;;;;;;6.65;67.30;95220.69;108646;1274;22601;-74
2024/02/07 05:49:31;;;;;;;3.00;0.90;;;;;;;6.64;67.29;95215.40;108642;1267;24380;-74
2024/02/07 05:52:03;;;;;;;3.50;1.10;;;;;;;6.64;67.47;95216.02;108689;1275;22529;-74
2024/02/07 05:54:33;;;;;;;1.90;0.70;;;;;;;6.66;67.46;95214.98;108649;1271;22597;-74
2024/02/07 05:57:00;;;;;;;;;;;;;;;6.69;67.45;95219.36;108675;1274;25316;-74
2024/02/07 05:59:28;;;;;;;3.20;1.20;;;;;;;6.71;67.40;95214.90;108632;1274;25366;-74
2024/02/07 06:01:57;;;;;;;5.30;1.50;;;;;;;6.71;67.20;95216.01;108683;1274;22524;-74
2024/02/07 06:04:25;;;;;;;2.30;1.20;;;;;;;6.66;67.33;95214.19;108664;1274;22531;-74
2024/02/07 06:06:53;;;;;;;3.30;0.90;;;;;;;6.66;67.41;95216.30;108682;1274;24320;-74
2024/02/07 06:09:21;;;;;;;3.50;1.40;;;;;;;6.66;67.54;95204.45;108619;1274;22547;-74
2024/02/07 06:11:51;;;;;;;2.60;1.10;;;;;;;6.62;67.55;95211.01;108616;1274;25486;-74
2024/02/07 06:14:22;;;;;;;2.90;1.20;;;;;;;6.67;67.76;95216.45;108682;1275;22524;-75
2024/02/07 06:16:50;;;;;;;2.20;1.00;;;;;;;6.70;67.49;95210.55;108581;1275;24253;-74
2024/02/07 06:19:19;;;;;;;3.40;1.70;;;;;;;6.70;67.52;95220.30;108704;1275;22621;-74
2024/02/07 06:21:49;;;;;;;2.90;1.50;;;;;;;6.71;67.69;95225.19;108588;1275;22633;-74
2024/02/07 06:24:17;;;;;;;2.80;1.00;;;;;;;6.72;67.69;95224.52;108632;1271;22686;-74
2024/02/07 06:26:45;;;;;;;3.30;1.10;;;;;;;6.73;67.54;95209.13;108620;1274;22533;-74
2024/02/07 06:29:13;;;;;;;3.30;1.00;;;;;;;6.72;67.59;95203.35;108653;1275;25340;-74
2024/02/07 06:31:41;;;;;;;2.20;1.00;;;;;;;6.69;67.86;95206.51;108676;1273;22540;-74
2024/02/07 06:34:10;;;;;;;3.10;1.40;;;;;;;6.73;67.85;95206.07;108627;1271;24340;-74
2024/02/07 06:36:38;;;;;;;2.90;1.80;;;;;;;6.76;67.77;95216.41;108692;1275;22593;-75
2024/02/07 06:39:06;;;;;;;2.00;1.10;;;;;;;6.80;67.83;95200.45;108679;1274;22983;-75
2024/02/07 06:41:34;;;;;;;2.60;1.20;;;;;;;6.81;67.83;95199.78;108619;1267;22564;-75
2024/02/07 06:44:03;;;;;;;2.70;1.20;;;;;;;6.83;67.69;95196.18;108701;1274;22532;-75
2024/02/07 06:46:31;;;;;;;3.30;1.30;;;;;;;6.89;67.53;95203.88;108767;1275;22525;-75
2024/02/07 06:49:02;;;;;;;1.80;1.00;;;;;;;6.91;67.44;95204.17;108771;1275;22850;-75
2024/02/07 06:51:30;;;;;;;4.30;1.90;;;;;;;6.89;67.49;95200.39;108766;1274;22518;-74
2024/02/07 06:53:58;;;;;;;1.20;0.80;;;;;;;6.91;67.45;95199.05;108767;1275;22551;-75
2024/02/07 06:56:27;;;;;;;2.30;1.50;;;;;;;6.91;67.58;95197.85;108566;1266;240658;-74
2024/02/07 06:58:55;;;;;;;5.70;1.40;;;;;;;6.91;67.65;95183.35;108764;1270;22638;-74
2024/02/07 07:01:26;;;;;;;5.50;1.20;;;;;;;6.94;67.58;95180.81;108698;1275;22521;-73
2024/02/07 07:03:55;;;;;;;5.00;1.70;;;;;;;7.00;67.46;95168.11;108686;1274;22573;-73
2024/02/07 07:06:22;;;;;;;;;;;;;;;7.04;67.47;95176.43;108755;1275;22514;-74
2024/02/07 07:08:51;;;;;;;5.80;1.50;;;;;;;7.05;67.67;95177.27;108739;1275;22524;-74
2024/02/07 07:11:19;;;;;;;4.00;1.60;;;;;;;7.06;67.42;95169.23;108716;1273;23382;-73
2024/02/07 07:13:47;;;;;;;2.50;1.50;;;;;;;7.12;67.35;95177.33;108704;1274;22654;-74
2024/02/07 07:16:15;;;;;;;4.50;1.50;;;;;;;7.17;67.27;95175.09;108650;1274;22534;-74
2024/02/07 07:18:44;;;;;;;3.80;1.90;;;;;;;7.22;67.35;95179.80;108620;1272;22528;-74
2024/02/07 07:21:12;;;;;;;7.10;1.60;;;;;;;7.24;67.17;95185.41;108622;1272;22525;-74
2024/02/07 07:23:40;;;;;;;3.00;1.20;;;;;;;7.27;67.12;95188.08;108722;1274;25451;-73
2024/02/07 07:26:09;;;;;;;5.90;1.60;;;;;;;7.32;67.10;95185.48;108644;1268;22528;-73
2024/02/07 07:28:37;;;;;;;5.30;1.80;;;;;;;7.35;67.17;95181.24;108665;1273;23002;-73
2024/02/07 07:31:05;;;;;;;5.30;1.70;;;;;;;7.38;66.89;95181.52;108617;1267;22563;-73
2024/02/07 07:33:33;;;;;;;2.90;1.40;;;;;;;7.44;66.63;95186.45;108622;1273;22514;-73
2024/02/07 07:36:01;;;;;;;5.30;1.70;;;;;;;7.52;66.44;95188.38;108621;1275;23160;-73
2024/02/07 07:38:30;;;;;;;2.60;1.20;;;;;;;7.53;66.17;95177.83;108640;1272;22574;-74
2024/02/07 07:40:58;;;;;;;5.00;1.30;;;;;;;7.55;66.43;95182.23;108584;1263;22524;-73
2024/02/07 07:43:26;;;;;;;6.70;1.80;;;;;;;7.56;66.28;95183.42;108653;1267;22529;-73
2024/02/07 07:45:55;;;;;;;2.30;1.00;;;;;;;7.58;66.17;95194.20;108630;1271;22610;-73
2024/02/07 07:48:24;;;;;;;2.50;1.50;;;;;;;7.56;65.93;95185.66;108659;1274;22499;-73
2024/02/07 07:50:53;;;;;;;5.70;1.70;;;;;;;7.55;66.07;95179.23;108650;1274;43318;-73
2024/02/07 07:53:21;;;;;;;2.90;1.30;;;;;;;7.57;66.21;95172.39;108820;1273;22605;-73
2024/02/07 07:55:50;;;;;;;2.70;1.10;;;;;;;7.55;66.00;95189.25;108737;1273;22523;-73
2024/02/07 07:58:20;;;;;;;4.20;1.50;;;;;;;7.53;66.07;95184.39;108717;1272;22481;-73
2024/02/07 08:00:49;;;;;;;2.20;1.30;;;;;;;7.51;65.94;95189.70;108678;1273;25263;-73
2024/02/07 08:03:17;;;;;;;3.60;1.80;;;;;;;7.50;66.26;95186.50;108714;1275;25988;-73
2024/02/07 08:05:46;;;;;;;5.10;1.40;;;;;;;7.52;66.12;95179.20;108739;1274;25269;-73
2024/02/07 08:08:14;;;;;;;2.30;1.30;;;;;;;7.51;66.29;95179.75;108724;1274;22543;-72
2024/02/07 08:10:44;;;;;;;4.60;1.50;;;;;;;7.49;66.50;95185.52;108672;1274;22524;-73
2024/02/07 08:13:13;;;;;;;2.50;1.30;;;;;;;7.48;66.50;95188.50;108491;1273;22523;-73
2024/02/07 08:15:41;;;;;;;6.40;1.60;;;;;;;7.48;66.61;95196.94;108650;1275;22532;-73
2024/02/07 08:18:09;;;;;;;3.40;1.30;;;;;;;7.50;66.56;95188.14;108748;1273;22541;-73
2024/02/07 08:20:38;;;;;;;2.80;1.30;;;;;;;7.51;66.81;95185.86;108763;1274;27302;-73
2024/02/07 08:23:06;;;;;;;5.50;1.90;;;;;;;7.53;66.64;95189.72;108739;1268;25287;-73
2024/02/07 08:25:35;;;;;;;2.80;1.10;;;;;;;7.53;66.62;95192.98;108784;1273;22533;-73
2024/02/07 08:28:03;;;;;;;2.90;1.30;;;;;;;7.56;66.98;95192.83;108746;1274;22528;-73
2024/02/07 08:30:32;;;;;;;2.40;1.80;;;;;;;7.56;67.01;95197.50;108688;1267;22563;-73
2024/02/07 08:33:00;;;;;;;2.30;1.20;;;;;;;7.57;66.99;95184.67;108609;1274;25463;-73
2024/02/07 08:35:28;;;;;;;3.20;1.40;;;;;;;7.57;67.07;95189.27;108625;1275;22535;-73
2024/02/07 08:37:58;;;;;;;3.50;1.40;;;;;;;7.56;67.27;95193.98;108680;1273;22539;-73
2024/02/07 08:40:27;;;;;;;2.60;1.00;;;;;;;7.57;67.18;95194.85;108644;1267;22521;-73
2024/02/07 08:42:55;;;;;;;6.40;1.60;;;;;;;7.59;67.26;95188.64;108741;1274;25754;-73
2024/02/07 08:45:23;;;;;;;2.70;1.20;;;;;;;7.59;67.18;95182.52;108739;1267;23435;-73
2024/02/07 08:47:51;;;;;;;14.50;1.30;;;;;;;7.55;67.19;95174.64;108728;1267;25297;-73
2024/02/07 08:50:19;;;;;;;5.00;1.10;;;;;;;7.49;67.50;95184.63;108731;1274;22545;-73
2024/02/07 08:52:48;;;;;;;2.20;1.30;;;;;;;7.45;67.55;95175.61;108766;1274;22541;-73
2024/02/07 08:55:16;;;;;;;4.80;1.50;;;;;;;7.45;67.76;95172.72;108730;1267;22542;-73
2024/02/07 08:57:45;;;;;;;1.90;0.90;;;;;;;7.45;67.86;95179.25;108734;1274;22522;-72
2024/02/07 09:00:15;;;;;;;2.90;2.00;;;;;;;7.50;68.24;95178.80;108764;1274;22525;-73
2024/02/07 09:02:49;;;;;;;4.90;1.30;;;;;;;7.57;68.60;95180.77;108802;1275;22555;-73
2024/02/07 09:05:18;;;;;;;3.10;1.10;;;;;;;7.63;68.42;95167.73;108753;1274;24175;-72
2024/02/07 09:07:49;;;;;;;2.50;1.40;;;;;;;7.74;68.88;95167.67;108550;1267;22531;-72
2024/02/07 09:10:17;;;;;;;1.70;0.90;;;;;;;7.87;68.74;95175.06;108591;1273;22534;-72
2024/02/07 09:12:46;;;;;;;2.00;1.00;;;;;;;7.89;68.38;95169.27;108635;1273;22603;-73
2024/02/07 09:15:14;;;;;;;3.50;1.40;;;;;;;7.88;68.05;95154.83;108696;1273;22532;-73
2024/02/07 09:17:42;;;;;;;2.00;1.10;;;;;;;7.87;68.10;95155.84;108697;1273;22536;-73
2024/02/07 09:20:13;;;;;;;5.80;1.40;;;;;;;7.92;68.15;95160.77;108700;1273;22525;-73
2024/02/07 09:22:42;;;;;;;3.50;1.20;;;;;;;7.96;67.91;95162.89;108777;1273;24359;-73
2024/02/07 09:25:10;;;;;;;2.20;1.30;;;;;;;7.92;67.70;95161.56;108752;1267;22541;-73
2024/02/07 09:27:40;;;;;;;3.50;1.50;;;;;;;7.88;68.45;95173.98;108629;1273;25453;-73
2024/02/07 09:30:10;;;;;;;3.10;1.40;;;;;;;7.92;69.05;95175.19;108644;1261;24243;-73
2024/02/07 09:32:40;;;;;;;2.60;1.40;;;;;;;7.92;69.83;95174.00;108663;1267;22564;-73
2024/02/07 09:35:09;;;;;;;2.60;1.10;;;;;;;7.82;70.50;95165.88;108648;1273;25491;-73
2024/02/07 09:37:39;;;;;;;4.40;1.30;;;;;;;7.75;71.50;95148.50;108687;1273;22519;-73
2024/02/07 09:40:10;;;;;;;1.50;0.90;;;;;;;7.67;72.16;95159.75;108734;1273;25239;-73
2024/02/07 09:42:42;;;;;;;1.90;1.10;;;;;;;7.61;73.11;95164.81;108714;1273;22669;-73
2024/02/07 09:45:13;;;;;;;3.00;1.00;;;;;;;7.58;73.78;95164.98;108709;1273;22518;-73
2024/02/07 09:47:49;;;;;;;3.50;1.80;;;;;;;7.62;74.39;95156.48;108748;1266;26533;-72
2024/02/07 09:50:19;;;;;;;2.20;1.00;;;;;;;7.64;75.04;95161.40;108713;1273;22551;-73
2024/02/07 09:52:48;;;;;;;5.10;1.60;;;;;;;7.62;75.39;95161.02;108605;1267;22535;-74
2024/02/07 09:55:16;;;;;;;2.80;1.00;;;;;;;7.59;75.53;95160.84;108739;1273;21734;-72
2024/02/07 09:57:47;;;;;;;3.60;1.80;;;;;;;7.61;75.68;95145.52;108681;1273;24298;-72
2024/02/07 10:00:17;;;;;;;4.50;2.10;;;;;;;7.65;76.14;95160.52;108754;1273;24260;-72
2024/02/07 10:02:49;;;;;;;4.20;1.50;;;;;;;7.67;76.69;95158.02;108690;1273;52365;-72
2024/02/07 10:05:27;;;;;;;4.20;1.40;;;;;;;7.61;76.77;95158.91;108762;1266;22539;-72
2024/02/07 10:07:55;;;;;;;3.10;1.50;;;;;;;7.52;76.82;95147.74;108745;1273;22533;-72
2024/02/07 10:10:24;;;;;;;2.30;1.10;;;;;;;7.45;76.98;95164.14;108726;1273;22581;-72
2024/02/07 10:12:56;;;;;;;8.50;1.80;;;;;;;7.43;77.38;95155.52;108728;1273;22525;-72
2024/02/07 10:15:25;;;;;;;3.40;2.00;;;;;;;7.37;77.70;95158.86;108783;1273;25268;-72
2024/02/07 10:17:54;;;;;;;6.10;1.50;;;;;;;7.32;77.88;95157.05;108704;1273;22636;-72
2024/02/07 10:20:24;;;;;;;4.50;1.70;;;;;;;7.34;78.33;95154.44;108635;1268;22640;-72
2024/02/07 10:22:52;;;;;;;2.20;1.40;;;;;;;7.40;78.63;95142.70;108589;1272;22534;-72
2024/02/07 10:25:20;;;;;;;4.00;1.70;;;;;;;7.51;78.41;95157.79;108643;1273;22518;-72
2024/02/07 10:27:48;;;;;;;4.70;2.20;;;;;;;7.61;78.40;95156.44;108660;1273;22524;-72
2024/02/07 10:30:17;;;;;;;3.60;1.10;;;;;;;7.62;78.13;95152.41;108722;1273;24884;-72
2024/02/07 10:32:50;;;;;;;2.60;1.40;;;;;;;7.61;77.96;95142.51;108672;1273;22726;-72
2024/02/07 10:35:19;;;;;;;3.80;1.50;;;;;;;7.53;77.55;95140.89;108688;1267;22592;-72
2024/02/07 10:37:47;;;;;;;3.20;1.30;;;;;;;7.44;77.06;95126.19;108614;1267;22561;-72
2024/02/07 10:40:15;;;;;;;2.80;1.20;;;;;;;7.35;77.11;95141.60;108703;1273;22529;-71
2024/02/07 10:42:46;;;;;;;1.90;0.90;;;;;;;7.30;77.38;95131.30;108685;1267;25293;-72
2024/02/07 10:45:15;;;;;;;2.40;1.20;;;;;;;7.27;77.75;95140.20;108734;1273;25268;-72
2024/02/07 10:47:43;;;;;;;5.10;1.90;;;;;;;7.30;78.01;95133.62;108683;1273;22596;-72
2024/02/07 10:50:12;;;;;;;2.80;1.20;;;;;;;7.30;78.41;95133.71;108729;1273;22549;-72
2024/02/07 10:52:40;;;;;;;2.40;1.50;;;;;;;7.30;78.72;95135.14;108715;1273;22614;-72
2024/02/07 10:55:10;;;;;;;2.90;1.10;;;;;;;7.33;79.02;95139.22;108704;1267;22591;-72
2024/02/07 10:57:41;;;;;;;2.40;1.30;;;;;;;7.35;79.44;95127.43;108665;1273;22542;-72
2024/02/07 11:00:11;;;;;;;2.50;1.30;;;;;;;7.29;78.99;95127.94;108753;1275;23978;-72
2024/02/07 11:02:43;;;;;;;1.90;1.10;;;;;;;7.26;79.50;95134.64;108710;1273;25390;-72
2024/02/07 11:05:13;;;;;;;4.60;1.30;;;;;;;7.21;79.73;95132.17;108721;1274;22529;-71
2024/02/07 11:07:41;;;;;;;4.70;1.30;;;;;;;7.18;79.97;95129.23;108687;1267;22522;-72
2024/02/07 11:10:11;;;;;;;3.60;1.50;;;;;;;7.22;79.94;95127.37;108607;1274;22568;-72
2024/02/07 11:12:40;;;;;;;3.80;1.90;;;;;;;7.25;80.51;95126.25;108681;1274;22536;-72
2024/02/07 11:15:10;;;;;;;6.80;1.70;;;;;;;7.24;80.70;95124.58;108787;1273;22536;-72
2024/02/07 11:17:39;;;;;;;9.70;2.50;;;;;;;7.25;80.62;95122.14;108731;1274;22525;-72
2024/02/07 11:20:11;;;;;;;2.40;0.90;;;;;;;7.30;80.89;95118.64;108762;1274;22938;-72
2024/02/07 11:22:44;;;;;;;3.70;1.80;;;;;;;7.34;80.79;95123.77;108765;1267;22541;-72
2024/02/07 11:25:16;;;;;;;2.20;1.30;;;;;;;7.34;80.61;95114.06;108724;1274;25537;-72
2024/02/07 11:27:44;;;;;;;4.60;1.40;;;;;;;7.33;80.57;95104.20;108690;1267;25408;-72
2024/02/07 11:30:17;;;;;;;1.50;1.00;;;;;;;7.32;80.36;95122.42;108744;1267;22528;-72
2024/02/07 11:32:48;;;;;;;5.90;1.60;;;;;;;7.32;80.45;95124.31;108663;1267;22640;-72
2024/02/07 11:35:20;;;;;;;3.40;1.90;;;;;;;7.32;80.29;95118.30;108735;1273;22544;-72
2024/02/07 11:37:50;;;;;;;3.70;1.20;;;;;;;7.31;80.06;95122.00;108742;1267;22541;-72
2024/02/07 11:40:23;;;;;;;1.70;1.00;;;;;;;7.31;80.23;95113.51;108745;1267;24981;-72
2024/02/07 11:43:01;;;;;;;2.80;1.50;;;;;;;7.32;80.41;95107.05;108720;1274;22530;-72
2024/02/07 11:45:30;;;;;;;2.00;1.10;;;;;;;7.29;80.49;95116.46;108728;1272;22578;-72
2024/02/07 11:47:58;;;;;;;3.70;1.40;;;;;;;7.26;80.65;95110.83;108734;1267;25268;-71
2024/02/07 11:50:34;;;;;;;5.40;1.90;;;;;;;7.22;80.41;95099.93;108732;1272;26435;-72
2024/02/07 11:53:03;;;;;;;2.70;1.40;;;;;;;7.17;80.94;95103.88;108730;1267;22585;-72
2024/02/07 11:55:40;;;;;;;5.30;1.40;;;;;;;7.14;81.00;95106.55;108700;1274;22531;-72
2024/02/07 11:58:09;;;;;;;1.90;1.30;;;;;;;7.12;81.39;95099.70;108737;1274;22604;-72
2024/02/07 12:00:37;;;;;;;3.40;1.40;;;;;;;7.15;81.23;95105.55;108690;1274;22524;-73
2024/02/07 12:03:12;;;;;;;2.00;1.20;;;;;;;7.17;81.32;95105.56;108726;1269;24216;-73
2024/02/07 12:05:42;;;;;;;2.70;0.90;;;;;;;7.17;81.67;95098.92;108767;1274;22564;-73
2024/02/07 12:08:11;;;;;;;5.00;1.70;;;;;;;7.18;82.08;95082.89;108711;1274;26473;-72
2024/02/07 12:10:39;;;;;;;;;;;;;;;7.24;81.57;95086.77;108624;1267;22383;-72
2024/02/07 12:13:10;;;;;;;3.60;1.80;;;;;;;7.33;81.53;95091.80;108670;1267;22993;-72
2024/02/07 12:15:40;;;;;;;3.70;1.80;;;;;;;7.45;81.47;95073.12;108703;1267;23988;-72
2024/02/07 12:18:09;;;;;;;4.50;1.10;;;;;;;7.54;81.13;95079.63;108593;1273;24164;-72
2024/02/07 12:20:37;;;;;;;3.00;1.70;;;;;;;7.62;80.73;95072.48;108718;1267;25321;-72
2024/02/07 12:23:06;;;;;;;2.20;1.20;;;;;;;7.73;80.47;95071.09;108639;1274;22751;-71
2024/02/07 12:25:35;;;;;;;4.80;1.60;;;;;;;7.77;80.00;95073.34;108630;1274;22522;-71
2024/02/07 12:28:17;;;;;;;5.30;1.40;;;;;;;7.81;79.70;95066.02;108579;1274;23110;-72
2024/02/07 12:30:45;;;;;;;3.50;1.70;;;;;;;7.83;79.27;95063.31;108624;1267;22532;-72
2024/02/07 12:33:14;;;;;;;4.60;2.00;;;;;;;7.91;78.67;95066.00;108597;1267;23239;-72
2024/02/07 12:35:50;;;;;;;6.10;1.50;;;;;;;7.94;77.83;95060.40;108638;1251;22588;-72
2024/02/07 12:38:19;;;;;;;2.50;1.20;;;;;;;7.96;77.71;95066.21;108632;1266;22645;-72
2024/02/07 12:40:51;;;;;;;2.80;1.00;;;;;;;7.95;76.78;95066.43;108649;1272;22641;-72
2024/02/07 12:43:22;;;;;;;3.70;1.80;;;;;;;7.97;76.89;95061.91;108681;1272;25359;-72
2024/02/07 12:45:52;;;;;;;4.10;1.10;;;;;;;7.96;76.80;95060.81;108646;1274;22525;-72
2024/02/07 12:48:22;;;;;;;1.60;1.20;;;;;;;7.99;76.66;95061.64;108720;1274;22530;-72